Time;durP1;ratioP1;P1;durP2;ratioP2;P2;SDS_P1;SDS_P2;PMS_P1;PMS_P2;Temp;Humidity;BMP_temperature;BMP_pressure;BME280_temperature;BME280_humidity;BME280_pressure;Samples;Min_cycle;Max_cycle;Signal;HPM_P1;HPM_P2
2021/03/29 00:00:30;;;;;;;50.73;19.02;;;;;;;4.22;58.98;101922.33;1773019;81;21259;-68
2021/03/29 00:03:03;;;;;;;53.63;21.57;;;;;;;4.14;59.14;101920.01;1773126;81;21237;-67
2021/03/29 00:05:37;;;;;;;47.55;18.75;;;;;;;4.03;59.28;101921.70;1773129;81;21814;-66
2021/03/29 00:08:20;;;;;;;40.33;15.67;;;;;;;3.93;59.45;101919.48;1774650;81;21134;-67
2021/03/29 00:10:54;;;;;;;37.50;11.95;;;;;;;3.84;59.64;101926.28;1773680;81;21725;-66
2021/03/29 00:13:30;;;;;;;41.42;14.10;;;;;;;3.73;60.00;101930.95;1774340;81;21141;-65
2021/03/29 00:16:03;;;;;;;28.42;11.80;;;;;;;3.65;60.35;101931.69;1772807;81;21311;-65
2021/03/29 00:18:37;;;;;;;28.90;12.53;;;;;;;3.57;60.54;101931.08;1772505;81;21181;-66
2021/03/29 00:21:10;;;;;;;27.10;12.07;;;;;;;3.51;60.71;101939.07;1773058;81;21177;-66
2021/03/29 00:23:44;;;;;;;26.60;12.18;;;;;;;3.45;60.78;101941.84;1773264;81;21145;-65
2021/03/29 00:26:18;;;;;;;28.57;12.15;;;;;;;3.39;60.97;101941.62;1772993;80;21699;-66
2021/03/29 00:28:51;;;;;;;;;;;;;;;3.31;61.05;101936.68;1774017;80;21767;-66
2021/03/29 00:31:25;;;;;;;25.25;8.95;;;;;;;3.24;61.08;101935.19;1770469;80;20164;-65
2021/03/29 00:33:58;;;;;;;21.40;10.00;;;;;;;3.11;60.87;101929.13;1771107;80;21142;-65
2021/03/29 00:36:32;;;;;;;;;;;;;;;3.03;60.96;101928.55;1773899;80;21137;-65
2021/03/29 00:39:07;;;;;;;37.17;13.83;;;;;;;2.92;61.44;101930.59;1772322;80;20570;-66
2021/03/29 00:41:40;;;;;;;50.83;19.10;;;;;;;2.84;62.08;101934.73;1773345;80;21811;-65
2021/03/29 00:44:13;;;;;;;57.00;21.20;;;;;;;2.82;62.50;101927.44;1771200;80;21260;-65
2021/03/29 00:46:47;;;;;;;59.20;21.45;;;;;;;2.80;62.89;101933.11;1771190;80;21145;-66
2021/03/29 00:49:21;;;;;;;47.55;19.48;;;;;;;2.78;63.04;101927.14;1772237;81;21133;-66
2021/03/29 00:51:54;;;;;;;54.50;22.07;;;;;;;2.75;63.18;101922.53;1771262;80;21276;-66
2021/03/29 00:54:28;;;;;;;53.75;23.40;;;;;;;2.70;63.28;101926.52;1771473;81;21815;-65
2021/03/29 00:57:02;;;;;;;51.13;20.47;;;;;;;2.66;63.55;101924.92;1771457;80;21174;-65
2021/03/29 00:59:35;;;;;;;53.25;22.55;;;;;;;2.62;63.75;101925.47;1772111;80;21315;-66
2021/03/29 01:02:09;;;;;;;94.50;30.20;;;;;;;2.59;63.86;101923.41;1771008;80;21221;-67
2021/03/29 01:04:42;;;;;;;83.75;28.00;;;;;;;2.53;63.85;101924.42;1770819;80;21792;-66
2021/03/29 01:07:16;;;;;;;90.15;29.32;;;;;;;2.48;63.85;101926.33;1771125;80;21150;-66
2021/03/29 01:09:50;;;;;;;74.50;26.95;;;;;;;2.40;63.97;101923.55;1772707;80;21240;-66
2021/03/29 01:12:23;;;;;;;79.25;27.82;;;;;;;2.34;64.25;101926.31;1772705;80;21283;-65
2021/03/29 01:14:57;;;;;;;87.22;29.12;;;;;;;2.29;64.51;101926.89;1772336;80;21256;-66
2021/03/29 01:17:34;;;;;;;79.15;29.37;;;;;;;2.25;64.72;101932.57;1770989;80;22180;-66
2021/03/29 01:20:24;;;;;;;65.78;25.48;;;;;;;2.19;64.86;101929.31;1772084;81;21359;-66
2021/03/29 01:22:57;;;;;;;58.40;23.62;;;;;;;2.14;65.08;101938.92;1771817;80;21276;-67
2021/03/29 01:26:05;;;;;;;57.25;22.13;;;;;;;2.08;65.21;101939.93;1772235;80;21253;-66
2021/03/29 01:28:38;;;;;;;55.70;21.25;;;;;;;2.02;65.30;101940.97;1772229;81;21292;-65
2021/03/29 01:31:11;;;;;;;41.00;15.90;;;;;;;1.87;65.41;101952.13;1772538;80;21358;-66
2021/03/29 01:33:45;;;;;;;32.57;12.00;;;;;;;1.74;65.38;101946.45;1773905;81;21248;-65
2021/03/29 01:36:18;;;;;;;;;;;;;;;1.62;65.30;101943.33;1789668;80;21231;-65
2021/03/29 01:38:50;;;;;;;31.80;11.00;;;;;;;1.53;65.49;101950.84;1774015;81;20225;-65
2021/03/29 01:41:23;;;;;;;29.13;8.60;;;;;;;1.49;65.60;101961.28;1774020;81;21260;-65
2021/03/29 01:43:57;;;;;;;22.45;9.68;;;;;;;1.46;65.59;101953.64;1775340;81;21256;-64
2021/03/29 01:46:29;;;;;;;22.50;10.40;;;;;;;1.42;65.56;101954.14;1774392;81;21799;-64
2021/03/29 01:49:03;;;;;;;32.13;10.68;;;;;;;1.39;65.61;101949.05;1774079;81;21236;-64
2021/03/29 01:51:36;;;;;;;22.62;7.45;;;;;;;1.38;65.71;101955.55;1773884;81;21216;-64
2021/03/29 01:54:10;;;;;;;32.97;11.73;;;;;;;1.38;65.82;101953.81;1773963;81;21866;-64
2021/03/29 01:56:43;;;;;;;26.52;9.20;;;;;;;1.42;65.82;101954.58;1773835;81;21723;-64
2021/03/29 01:59:16;;;;;;;19.42;6.67;;;;;;;1.44;65.61;101953.66;1774383;81;21807;-65
2021/03/29 02:01:49;;;;;;;30.20;10.13;;;;;;;1.47;65.62;101961.77;1774550;81;21149;-65
2021/03/29 02:04:22;;;;;;;25.43;7.95;;;;;;;1.48;65.41;101960.89;1773699;81;21798;-65
2021/03/29 02:06:57;;;;;;;8.00;3.17;;;;;;;1.48;65.13;101960.42;1773531;81;21318;-63
2021/03/29 02:09:30;;;;;;;7.37;2.85;;;;;;;1.50;64.44;101952.23;1774207;81;21260;-65
2021/03/29 02:12:07;;;;;;;5.05;1.60;;;;;;;1.58;63.67;101951.58;1773739;81;21279;-64
2021/03/29 02:14:40;;;;;;;4.33;2.17;;;;;;;1.69;63.09;101956.48;1764494;81;22079;-64
2021/03/29 02:17:33;;;;;;;8.43;2.15;;;;;;;1.78;62.56;101956.25;1774078;81;21319;-64
2021/03/29 02:20:19;;;;;;;11.00;3.25;;;;;;;1.86;62.20;101953.86;1661768;84;21350;-64
2021/03/29 02:22:53;;;;;;;14.70;4.92;;;;;;;1.94;61.89;101962.27;1702127;84;21727;-66
2021/03/29 02:25:28;;;;;;;16.87;6.35;;;;;;;1.98;61.81;101960.00;1701640;84;21388;-65
2021/03/29 02:28:02;;;;;;;22.42;8.45;;;;;;;1.97;61.97;101958.75;1702116;84;21296;-64
2021/03/29 02:30:38;;;;;;;14.10;4.92;;;;;;;1.93;62.14;101954.12;1702491;84;21264;-65
2021/03/29 02:33:16;;;;;;;16.67;6.42;;;;;;;1.85;62.16;101955.20;1702392;84;21241;-64
2021/03/29 02:35:50;;;;;;;17.55;6.67;;;;;;;1.81;62.13;101962.20;1700900;84;21811;-66
2021/03/29 02:38:24;;;;;;;16.90;7.47;;;;;;;1.76;62.28;101954.15;1702358;83;21165;-65
2021/03/29 02:40:57;;;;;;;17.65;7.72;;;;;;;1.72;62.64;101957.71;1702537;84;21184;-65
2021/03/29 02:43:30;;;;;;;20.12;7.90;;;;;;;1.72;62.94;101957.23;1702745;84;21312;-65
2021/03/29 02:46:07;;;;;;;26.03;9.77;;;;;;;1.69;63.09;101959.92;1702301;84;21815;-64
2021/03/29 02:48:44;;;;;;;349.85;159.70;;;;;;;1.66;63.32;101959.14;1701861;84;21434;-65
2021/03/29 02:51:17;;;;;;;56.18;21.93;;;;;;;1.59;63.43;101962.76;1703214;83;21296;-63
2021/03/29 02:53:56;;;;;;;26.02;9.30;;;;;;;1.54;63.51;101967.18;1701665;84;21526;-65
2021/03/29 02:56:34;;;;;;;109.67;53.80;;;;;;;1.49;63.68;101963.86;1701114;84;21149;-68
2021/03/29 02:59:16;;;;;;;65.32;25.95;;;;;;;1.47;63.81;101963.91;1699918;84;21391;-68
2021/03/29 03:01:49;;;;;;;29.25;12.68;;;;;;;1.47;63.58;101963.91;1682499;84;21203;-69
2021/03/29 03:04:23;;;;;;;38.75;15.88;;;;;;;1.51;63.57;101967.25;1681714;84;21835;-65
2021/03/29 03:06:56;;;;;;;32.13;14.03;;;;;;;1.55;63.49;101968.89;1682303;85;21173;-64
2021/03/29 03:09:29;;;;;;;56.53;23.70;;;;;;;1.58;63.54;101970.08;1682004;85;21197;-64
2021/03/29 03:12:04;;;;;;;70.72;26.65;;;;;;;1.58;63.81;101964.48;1682205;85;21784;-64
2021/03/29 03:14:38;;;;;;;71.05;22.90;;;;;;;1.58;64.06;101968.80;1682846;85;21308;-65
2021/03/29 03:17:12;;;;;;;40.98;16.93;;;;;;;1.56;64.34;101967.98;1662028;85;21288;-65
2021/03/29 03:19:45;;;;;;;41.83;17.47;;;;;;;1.57;64.49;101969.27;1682182;85;21728;-65
2021/03/29 03:22:18;;;;;;;43.52;19.17;;;;;;;1.60;64.37;101969.63;1672918;84;21170;-65
2021/03/29 03:24:52;;;;;;;37.93;14.83;;;;;;;1.63;64.13;101970.82;1669466;85;21875;-66
2021/03/29 03:27:25;;;;;;;20.35;8.53;;;;;;;1.66;63.93;101970.31;1670628;85;21320;-64
2021/03/29 03:29:58;;;;;;;38.67;14.05;;;;;;;1.71;63.81;101968.91;1669519;86;21959;-64
2021/03/29 03:32:31;;;;;;;32.20;13.72;;;;;;;1.75;63.49;101964.91;1670613;85;21138;-65
2021/03/29 03:35:06;;;;;;;21.00;9.87;;;;;;;1.80;63.35;101965.66;1669878;86;21867;-66
2021/03/29 03:37:38;;;;;;;;;;;;;;;1.86;63.17;101964.66;1672645;86;21173;-66
2021/03/29 03:40:12;;;;;;;38.38;14.43;;;;;;;1.93;63.12;101971.36;1669216;86;20195;-65
2021/03/29 03:42:45;;;;;;;36.83;14.50;;;;;;;1.95;63.15;101978.62;1671003;85;21824;-65
2021/03/29 03:45:20;;;;;;;52.80;16.83;;;;;;;1.96;63.21;101978.56;1671034;86;21234;-64
2021/03/29 03:47:53;;;;;;;54.98;20.82;;;;;;;1.97;63.34;101980.71;1669931;86;21154;-65
2021/03/29 03:50:27;;;;;;;65.62;20.43;;;;;;;2.00;63.44;101984.08;1669660;86;21300;-66
2021/03/29 03:53:00;;;;;;;79.17;23.85;;;;;;;2.03;63.28;101989.14;1671257;84;21768;-66
2021/03/29 03:55:34;;;;;;;74.67;26.80;;;;;;;2.18;63.37;101989.18;1669711;86;21343;-66
2021/03/29 03:58:06;;;;;;;90.12;26.60;;;;;;;2.54;62.89;101997.23;1670055;86;21534;-68
2021/03/29 04:00:40;;;;;;;69.67;26.77;;;;;;;2.98;62.27;101998.54;1670022;85;21331;-68
2021/03/29 04:03:13;;;;;;;70.30;23.12;;;;;;;3.55;61.52;101996.33;1670324;86;21304;-68
2021/03/29 04:05:59;;;;;;;55.83;17.50;;;;;;;4.13;60.52;101993.50;1669545;86;21186;-68
2021/03/29 04:08:43;;;;;;;44.33;18.25;;;;;;;4.72;59.11;101995.23;1668853;84;21213;-69
2021/03/29 04:11:22;;;;;;;52.90;19.87;;;;;;;5.50;57.49;101989.16;1666294;86;21335;-69
2021/03/29 04:13:53;;;;;;;194.67;96.80;;;;;;;6.25;55.63;101992.52;1665926;86;21181;-69
2021/03/29 04:16:26;;;;;;;64.07;37.13;;;;;;;7.03;53.68;101997.19;1667260;86;21232;-70
2021/03/29 04:19:00;;;;;;;;;;;;;;;7.78;51.94;101992.67;1668726;86;21185;-70
2021/03/29 04:21:34;;;;;;;57.43;24.92;;;;;;;8.48;50.08;101995.15;1668188;86;20191;-69
2021/03/29 04:24:10;;;;;;;70.75;31.60;;;;;;;9.15;48.20;101998.05;1667047;84;21209;-70
2021/03/29 04:26:44;;;;;;;66.65;31.02;;;;;;;9.83;45.85;101994.16;1670272;85;21305;-69
2021/03/29 04:29:17;;;;;;;69.07;31.30;;;;;;;10.43;44.11;102002.80;1670710;85;21803;-71
2021/03/29 04:31:50;;;;;;;65.92;31.25;;;;;;;10.91;42.51;102001.09;1670959;85;21859;-72
2021/03/29 04:34:24;;;;;;;57.20;28.85;;;;;;;11.34;41.31;101996.59;1670534;86;21185;-71
2021/03/29 04:36:57;;;;;;;57.33;28.62;;;;;;;11.84;40.04;101993.31;1669417;85;21284;-70
2021/03/29 04:39:31;;;;;;;26.33;12.28;;;;;;;12.28;38.85;101996.39;1671686;85;21325;-70
2021/03/29 04:42:05;;;;;;;35.17;16.10;;;;;;;12.72;37.71;101998.12;1669713;86;21291;-71
2021/03/29 04:44:39;;;;;;;31.45;13.30;;;;;;;13.09;36.54;102003.41;1670012;85;21237;-67
2021/03/29 04:51:22;;;;;;;38.10;15.00;;;;;;;13.83;35.25;102005.34;1667339;85;21216;-69
2021/03/29 04:53:55;;;;;;;100.30;44.63;;;;;;;14.48;34.19;101998.20;1668069;86;21194;-69
2021/03/29 04:56:29;;;;;;;30.05;15.25;;;;;;;14.83;33.57;102006.34;1666413;85;21277;-70
2021/03/29 05:03:12;;;;;;;49.98;25.37;;;;;;;14.23;33.32;102005.81;1656188;86;21247;-60
2021/03/29 05:05:46;;;;;;;51.28;25.62;;;;;;;13.54;34.19;102009.78;1656193;86;21200;-67
2021/03/29 05:12:22;;;;;;;48.92;18.50;;;;;;;12.17;35.86;102010.73;1655334;85;20703;-61
2021/03/29 05:14:54;;;;;;;15.75;6.75;;;;;;;11.32;37.46;102020.27;1657313;86;22125;-61
2021/03/29 05:17:27;;;;;;;14.55;6.55;;;;;;;11.07;38.18;102021.93;1656240;86;21339;-69
2021/03/29 05:20:00;;;;;;;;;;;;;;;10.92;38.88;102025.50;1659220;85;21610;-61
2021/03/29 05:22:33;;;;;;;22.60;8.48;;;;;;;10.77;39.13;102026.00;1655082;86;20186;-66
2021/03/29 05:25:08;;;;;;;14.95;7.00;;;;;;;10.62;39.79;102031.70;1656370;85;21363;-66
2021/03/29 05:27:42;;;;;;;14.20;7.28;;;;;;;10.55;40.18;102034.79;1651277;84;21331;-61
2021/03/29 05:30:21;;;;;;;15.95;8.50;;;;;;;10.42;40.58;102035.14;1651657;86;21253;-65
2021/03/29 05:32:55;;;;;;;14.38;7.67;;;;;;;10.78;40.57;102042.93;1651313;86;21358;-68
2021/03/29 05:35:29;;;;;;;17.80;8.73;;;;;;;11.49;39.90;102037.08;1651887;85;21691;-60
2021/03/29 05:38:03;;;;;;;22.95;10.75;;;;;;;12.67;38.77;102039.64;1651740;84;22040;-62
2021/03/29 05:40:36;;;;;;;26.40;10.93;;;;;;;13.95;36.98;102037.33;1651968;86;21391;-60
2021/03/29 05:43:09;;;;;;;19.77;10.82;;;;;;;15.19;35.21;102047.42;1651231;84;21351;-69
2021/03/29 05:45:43;;;;;;;11.97;6.97;;;;;;;16.28;33.61;102034.91;1631262;86;21192;-68
2021/03/29 05:48:16;;;;;;;23.35;6.30;;;;;;;17.28;32.15;102038.92;1651411;84;21347;-64
2021/03/29 05:50:49;;;;;;;8.18;4.80;;;;;;;18.24;30.85;102033.18;1652108;86;22157;-61
2021/03/29 05:53:23;;;;;;;7.15;4.00;;;;;;;19.10;29.48;102035.55;1652701;84;22196;-64
2021/03/29 05:55:57;;;;;;;9.40;5.20;;;;;;;19.77;28.32;102032.94;1652091;86;21189;-64
2021/03/29 05:58:35;;;;;;;9.85;4.50;;;;;;;20.33;27.69;102032.06;1629427;86;21244;-65
2021/03/29 06:05:14;;;;;;;8.13;4.05;;;;;;;21.42;26.47;102037.39;1653043;86;21137;-63
2021/03/29 06:07:47;;;;;;;10.68;4.05;;;;;;;22.37;25.33;102031.95;1651496;85;21347;-74
2021/03/29 06:10:20;;;;;;;8.35;3.15;;;;;;;22.93;24.56;102034.45;1648595;85;21402;-66
2021/03/29 06:12:54;;;;;;;18.30;3.92;;;;;;;23.38;24.12;102035.92;1652221;86;21347;-70
2021/03/29 06:15:29;;;;;;;25.85;4.83;;;;;;;23.78;23.47;102042.01;1652319;86;21387;-69
2021/03/29 06:18:19;;;;;;;11.85;4.87;;;;;;;24.20;22.98;102033.47;1652692;84;21232;-68
2021/03/29 06:21:12;;;;;;;21.25;11.22;;;;;;;24.60;22.33;102029.86;1651515;86;21962;-67
2021/03/29 06:23:58;;;;;;;23.32;16.87;;;;;;;24.98;21.91;102027.91;1650938;86;21508;-64
2021/03/29 06:26:33;;;;;;;20.10;12.13;;;;;;;25.31;20.93;102026.98;1651621;84;21335;-63
2021/03/29 06:29:13;;;;;;;15.75;9.75;;;;;;;25.67;20.48;102030.48;1650731;84;21514;-65
2021/03/29 06:31:47;;;;;;;22.98;3.08;;;;;;;26.09;20.35;102022.88;1649318;86;21209;-69
2021/03/29 06:34:23;;;;;;;4.67;2.92;;;;;;;26.61;19.17;102025.95;1650818;86;21327;-68
2021/03/29 06:36:57;;;;;;;10.68;3.58;;;;;;;26.60;18.58;102021.62;1647820;86;21600;-69
2021/03/29 06:39:30;;;;;;;40.67;29.60;;;;;;;26.67;18.39;102023.83;1628576;86;21272;-65
2021/03/29 06:42:04;;;;;;;9.05;3.80;;;;;;;26.83;18.16;102033.43;1608159;86;21200;-66
2021/03/29 06:44:38;;;;;;;7.28;5.97;;;;;;;26.99;17.99;102030.93;1650857;86;21491;-63
2021/03/29 06:47:18;;;;;;;2.47;1.70;;;;;;;27.24;17.69;102027.50;1652020;86;21327;-65
2021/03/29 06:49:51;;;;;;;5.33;2.98;;;;;;;27.41;16.47;102029.33;1650640;86;21213;-66
2021/03/29 06:52:28;;;;;;;6.67;2.50;;;;;;;27.44;16.78;102026.75;1651966;86;21181;-71
2021/03/29 06:55:27;;;;;;;6.90;2.35;;;;;;;27.55;16.48;102038.24;1652725;86;21324;-67
2021/03/29 06:58:13;;;;;;;3.33;2.30;;;;;;;27.66;16.13;102033.08;1652679;86;21343;-66
2021/03/29 07:00:41;;;;;;;2.77;1.95;;;;;;;27.40;16.18;102029.00;1650617;86;21656;-62
2021/03/29 07:03:15;;;;;;;11.20;2.62;;;;;;;26.60;16.65;102031.02;1651511;86;21229;-67
2021/03/29 07:05:50;;;;;;;2.77;1.95;;;;;;;26.12;16.67;102023.04;1628966;86;21331;-71
2021/03/29 07:08:23;;;;;;;4.83;2.15;;;;;;;26.42;16.56;102025.31;1652078;86;21288;-68
2021/03/29 07:10:57;;;;;;;5.37;2.22;;;;;;;27.11;15.81;102036.02;1651985;86;21261;-62
2021/03/29 07:13:31;;;;;;;2.25;1.47;;;;;;;27.55;15.25;102035.55;1651538;86;21633;-71
2021/03/29 07:16:05;;;;;;;6.05;1.80;;;;;;;27.47;15.04;102030.35;1650498;86;21221;-59
2021/03/29 07:18:39;;;;;;;2.77;1.55;;;;;;;27.47;15.10;102039.77;1629774;86;21315;-67
2021/03/29 07:21:15;;;;;;;19.75;6.70;;;;;;;26.64;15.79;102032.28;1652063;86;21420;-67
2021/03/29 07:23:47;;;;;;;4.47;2.17;;;;;;;25.46;16.55;102039.03;1651771;86;21511;-71
2021/03/29 07:26:48;;;;;;;7.10;3.40;;;;;;;25.21;16.65;102042.53;1652132;86;21320;-68
2021/03/29 07:29:28;;;;;;;4.67;2.67;;;;;;;25.21;16.65;102042.53;1651013;84;22129;-68
2021/03/29 07:32:06;;;;;;;35.98;18.30;;;;;;;25.27;16.44;102039.92;1653153;84;21609;-63
2021/03/29 07:34:52;;;;;;;45.48;32.80;;;;;;;25.55;16.49;102048.11;1651128;86;21386;-64
2021/03/29 07:37:47;;;;;;;24.85;17.15;;;;;;;25.78;16.02;102043.37;1651938;86;21308;-67
2021/03/29 07:40:25;;;;;;;10.58;2.47;;;;;;;26.18;15.78;102044.56;1650431;86;21341;-66
2021/03/29 07:47:09;;;;;;;5.42;2.50;;;;;;;26.45;14.81;102037.02;1651682;86;21986;-63
2021/03/29 07:49:49;;;;;;;6.83;3.42;;;;;;;25.66;15.29;102037.36;1651217;86;21586;-65
2021/03/29 07:52:34;;;;;;;3.55;2.02;;;;;;;25.56;15.37;102036.34;1651621;86;21396;-67
2021/03/29 07:55:30;;;;;;;2.62;1.40;;;;;;;25.60;15.10;102037.64;1650347;86;21233;-66
2021/03/29 07:58:16;;;;;;;2.75;1.50;;;;;;;25.64;15.12;102036.73;1651529;86;21386;-66
2021/03/29 08:00:58;;;;;;;6.15;1.90;;;;;;;25.53;15.50;102027.33;1650580;86;22126;-69
2021/03/29 08:03:38;;;;;;;3.85;2.00;;;;;;;25.74;14.98;102034.06;1651459;86;21216;-64
2021/03/29 08:06:38;;;;;;;2.87;1.92;;;;;;;25.93;15.09;102029.89;1650485;86;21209;-65
2021/03/29 08:09:17;;;;;;;3.35;1.55;;;;;;;26.09;14.97;102032.28;1651707;86;21938;-69
2021/03/29 08:11:56;;;;;;;3.77;1.60;;;;;;;26.09;14.70;102023.72;1651662;86;21221;-66
2021/03/29 08:14:40;;;;;;;9.90;2.37;;;;;;;26.08;14.49;102029.27;1651596;86;21269;-66
2021/03/29 08:17:45;;;;;;;2.83;1.60;;;;;;;26.15;14.52;102023.50;1651712;86;21327;-67
2021/03/29 08:20:34;;;;;;;3.50;1.60;;;;;;;26.05;14.63;102022.46;1650177;86;21276;-68
2021/03/29 08:23:28;;;;;;;2.65;1.87;;;;;;;26.15;14.43;102007.89;1650150;84;21954;-65
2021/03/29 08:26:20;;;;;;;3.47;1.98;;;;;;;26.29;14.48;102004.27;1650212;87;21419;-65
2021/03/29 08:29:13;;;;;;;5.03;1.72;;;;;;;26.02;14.53;102008.59;1650948;87;21264;-65
2021/03/29 08:32:33;;;;;;;3.42;1.90;;;;;;;25.96;14.75;102004.81;1649724;87;21207;-71
2021/03/29 08:35:21;;;;;;;3.90;1.87;;;;;;;26.02;14.65;102004.56;1666073;85;21330;-66
2021/03/29 08:37:55;;;;;;;16.27;2.80;;;;;;;26.02;14.87;102001.38;1669068;84;21592;-67
2021/03/29 08:40:34;;;;;;;4.45;2.00;;;;;;;26.25;14.46;101998.98;1669859;85;21337;-70
2021/03/29 08:43:09;;;;;;;3.47;1.80;;;;;;;26.44;14.47;102005.80;1668843;85;21211;-68
2021/03/29 08:45:45;;;;;;;5.58;1.72;;;;;;;26.39;14.70;102004.22;1669867;85;21440;-67
2021/03/29 08:48:19;;;;;;;6.40;2.83;;;;;;;25.94;15.16;102002.84;1670385;85;21345;-68
2021/03/29 08:50:54;;;;;;;3.95;1.90;;;;;;;25.47;15.79;102007.99;1627727;86;21393;-66
2021/03/29 08:53:27;;;;;;;3.47;2.00;;;;;;;24.65;16.27;102008.71;1670153;85;21196;-64
2021/03/29 08:56:02;;;;;;;7.65;5.37;;;;;;;23.64;16.66;102006.69;1669612;85;21304;-66
2021/03/29 08:58:37;;;;;;;6.80;2.98;;;;;;;22.75;17.26;102009.34;1670075;85;21218;-67
2021/03/29 09:01:09;;;;;;;;;;;;;;;21.86;17.81;102010.48;1672323;85;21262;-69
2021/03/29 09:03:43;;;;;;;3.22;1.72;;;;;;;20.71;18.90;102009.49;1671253;85;20282;-69
2021/03/29 09:06:19;;;;;;;28.95;11.97;;;;;;;20.71;18.90;102009.49;1669928;85;22183;-68
2021/03/29 09:08:52;;;;;;;18.05;10.43;;;;;;;20.54;19.68;102011.77;1670372;85;21192;-65
2021/03/29 09:11:25;;;;;;;30.15;16.87;;;;;;;20.02;19.68;102009.55;1669935;85;21231;-67
2021/03/29 09:14:03;;;;;;;97.02;53.40;;;;;;;19.30;20.36;102021.15;1670790;85;21234;-65
2021/03/29 09:16:47;;;;;;;57.75;31.60;;;;;;;18.47;21.63;102025.74;1669847;85;21265;-66
2021/03/29 09:19:21;;;;;;;115.28;59.70;;;;;;;17.55;21.83;102023.25;1670215;85;21383;-67
2021/03/29 09:22:02;;;;;;;58.52;31.37;;;;;;;17.20;22.06;102025.52;1669771;85;21247;-68
2021/03/29 09:24:34;;;;;;;4.85;2.58;;;;;;;17.38;22.09;102023.41;1670724;85;21262;-70
2021/03/29 09:31:21;;;;;;;35.17;18.92;;;;;;;18.29;20.74;102019.49;1671056;85;22510;-67
2021/03/29 09:33:57;;;;;;;10.25;4.72;;;;;;;19.09;20.10;102020.59;1670506;85;21919;-68
2021/03/29 09:36:30;;;;;;;9.30;4.00;;;;;;;19.48;20.05;102019.87;1663488;85;21537;-66
2021/03/29 09:39:04;;;;;;;77.53;47.70;;;;;;;19.66;20.43;102022.52;1649985;86;21203;-65
2021/03/29 09:41:38;;;;;;;5.12;2.83;;;;;;;19.51;20.73;102026.23;1627502;83;22216;-66
2021/03/29 09:44:11;;;;;;;32.65;21.77;;;;;;;19.27;20.25;102025.42;1678355;84;21296;-68
2021/03/29 09:46:46;;;;;;;13.75;8.35;;;;;;;18.71;21.37;102025.59;1677299;85;21350;-67
2021/03/29 09:49:19;;;;;;;9.10;3.72;;;;;;;18.40;21.75;102017.50;1676628;85;21382;-66
2021/03/29 09:51:55;;;;;;;218.97;11.37;;;;;;;18.17;22.77;102029.42;1677378;85;21347;-62
2021/03/29 09:54:37;;;;;;;21.68;3.42;;;;;;;17.48;24.75;102032.69;1676142;85;22164;-62
2021/03/29 09:57:19;;;;;;;9.05;2.37;;;;;;;16.47;26.31;102033.70;1676867;83;21363;-64
2021/03/29 09:59:53;;;;;;;11.12;2.02;;;;;;;15.90;27.82;102036.81;1678158;84;21354;-63
2021/03/29 10:02:28;;;;;;;9.35;3.67;;;;;;;15.20;28.53;102052.22;1677146;85;22105;-61
2021/03/29 10:05:10;;;;;;;10.30;2.12;;;;;;;14.65;29.34;102059.20;1677708;85;21315;-62
2021/03/29 10:07:54;;;;;;;5.17;2.67;;;;;;;14.20;29.55;102052.14;1676308;85;22085;-61
2021/03/29 10:10:31;;;;;;;42.83;20.85;;;;;;;13.78;30.67;102053.53;1677879;85;21328;-62
2021/03/29 10:13:14;;;;;;;27.45;12.63;;;;;;;13.48;31.25;102059.27;1677256;84;21376;-66
2021/03/29 10:15:47;;;;;;;53.78;27.13;;;;;;;13.29;30.63;102061.53;1678477;85;22112;-65
2021/03/29 10:22:35;;;;;;;11.33;5.40;;;;;;;12.98;28.79;102067.72;1677102;85;21451;-62
2021/03/29 10:25:19;;;;;;;4.10;1.90;;;;;;;12.90;28.62;102071.38;1677728;85;21464;-63
2021/03/29 10:27:57;;;;;;;9.23;4.62;;;;;;;12.97;28.50;102059.48;1677517;84;21208;-65
2021/03/29 10:30:33;;;;;;;26.65;15.10;;;;;;;13.18;28.07;102068.52;1677847;85;22109;-66
2021/03/29 10:33:06;;;;;;;14.20;7.35;;;;;;;13.48;27.99;102063.68;1677002;85;21366;-64
2021/03/29 10:35:40;;;;;;;8.00;1.55;;;;;;;13.76;27.36;102067.76;1677567;85;21499;-63
2021/03/29 10:38:13;;;;;;;;;;;;;;;13.87;27.08;102069.99;1661292;84;21258;-60
2021/03/29 10:40:46;;;;;;;8.60;3.77;;;;;;;13.85;27.96;102074.50;1685308;85;20392;-62
2021/03/29 10:43:19;;;;;;;116.67;48.13;;;;;;;13.82;28.33;102073.44;1684957;85;21323;-59
2021/03/29 10:45:52;;;;;;;;;;;;;;;13.93;27.99;102069.52;1687968;85;22207;-62
2021/03/29 10:48:26;;;;;;;7.72;5.33;;;;;;;14.01;28.29;102063.69;1684632;85;20284;-60
2021/03/29 10:51:03;;;;;;;18.23;10.65;;;;;;;13.99;28.54;102062.50;1685506;85;21646;-65
2021/03/29 10:53:37;;;;;;;10.13;3.00;;;;;;;13.88;28.23;102058.95;1684901;85;21334;-63
2021/03/29 10:56:10;;;;;;;17.70;10.17;;;;;;;13.71;27.49;102057.57;1685663;85;21257;-60
2021/03/29 10:58:45;;;;;;;5.80;2.77;;;;;;;13.64;27.27;102058.97;1684115;84;21917;-60
2021/03/29 11:01:18;;;;;;;6.77;3.33;;;;;;;13.57;27.31;102060.37;1684387;85;21354;-61
2021/03/29 11:03:51;;;;;;;;;;;;;;;13.49;27.92;102056.16;1686340;85;21546;-59
2021/03/29 11:06:24;;;;;;;8.15;4.12;;;;;;;13.43;28.45;102053.48;1685202;85;20300;-60
2021/03/29 11:08:57;;;;;;;3.58;2.85;;;;;;;13.39;29.38;102051.19;1684773;85;21334;-61
2021/03/29 11:11:30;;;;;;;8.43;3.10;;;;;;;13.36;29.30;102052.72;1685600;85;21362;-61
2021/03/29 11:14:03;;;;;;;2.95;1.70;;;;;;;13.32;29.51;102052.59;1684656;85;21511;-62
2021/03/29 11:16:37;;;;;;;2.62;1.35;;;;;;;13.24;29.47;102049.19;1684173;84;21249;-61
2021/03/29 11:19:10;;;;;;;5.60;2.27;;;;;;;13.21;29.46;102046.77;1684427;85;21326;-61
2021/03/29 11:21:44;;;;;;;8.48;6.72;;;;;;;13.20;29.00;102049.52;1685432;85;21338;-68
2021/03/29 11:24:20;;;;;;;5.58;2.50;;;;;;;13.22;28.40;102047.61;1684372;85;21216;-63
2021/03/29 11:26:53;;;;;;;4.95;2.10;;;;;;;13.27;28.48;102049.44;1685556;85;22048;-65
2021/03/29 11:29:26;;;;;;;9.67;2.80;;;;;;;13.36;28.37;102052.25;1684657;85;21399;-61
2021/03/29 11:32:00;;;;;;;6.55;4.08;;;;;;;13.38;27.30;102050.34;1685461;85;21249;-61
2021/03/29 11:34:33;;;;;;;8.13;3.30;;;;;;;13.21;29.12;102054.66;1684628;85;21184;-65
2021/03/29 11:37:06;;;;;;;19.90;6.30;;;;;;;13.15;29.74;102055.11;1685612;85;21451;-63
2021/03/29 11:39:39;;;;;;;;;;;;;;;13.13;30.67;102054.84;1680201;83;22001;-62
2021/03/29 11:42:12;;;;;;;9.43;2.77;;;;;;;13.07;31.21;102057.89;1668051;86;20243;-66
2021/03/29 11:44:45;;;;;;;4.40;2.12;;;;;;;13.01;32.58;102060.47;1666720;86;21229;-62
2021/03/29 11:47:18;;;;;;;9.08;2.67;;;;;;;13.01;32.49;102058.31;1667213;86;21466;-62
2021/03/29 11:49:51;;;;;;;;;;;;;;;12.97;32.95;102062.11;1669644;86;21361;-58
2021/03/29 11:52:24;;;;;;;6.20;1.77;;;;;;;12.94;32.55;102064.48;1667784;86;20404;-59
2021/03/29 11:54:58;;;;;;;6.00;2.30;;;;;;;12.85;32.75;102066.41;1667729;86;21383;-63
2021/03/29 11:57:31;;;;;;;5.27;1.63;;;;;;;12.83;32.69;102065.22;1668221;86;21320;-60
2021/03/29 12:00:08;;;;;;;8.80;2.22;;;;;;;12.73;32.75;102066.79;1666845;86;21362;-63
2021/03/29 12:02:49;;;;;;;6.70;2.27;;;;;;;12.68;33.33;102061.51;1667738;86;21249;-63
2021/03/29 12:05:24;;;;;;;11.33;2.40;;;;;;;12.66;33.46;102066.84;1666219;86;21214;-60
2021/03/29 12:13:27;;;;;;;4.72;1.87;;;;;;;12.40;33.53;102069.56;1667895;86;21320;-63
2021/03/29 12:16:02;;;;;;;9.63;1.90;;;;;;;12.26;33.69;102068.34;1667850;86;22116;-66
2021/03/29 12:18:40;;;;;;;3.75;1.72;;;;;;;12.20;33.37;102066.14;1667892;86;21974;-61
2021/03/29 12:21:15;;;;;;;4.30;1.52;;;;;;;12.18;33.20;102064.09;1667588;86;21399;-59
2021/03/29 12:23:52;;;;;;;2.33;1.62;;;;;;;12.08;32.82;102071.75;1668265;86;21343;-60
2021/03/29 12:26:27;;;;;;;2.95;1.40;;;;;;;11.87;32.12;102068.73;1668165;86;21368;-60
2021/03/29 12:29:02;;;;;;;3.27;1.40;;;;;;;11.70;32.39;102072.09;1667821;86;21626;-60
2021/03/29 12:31:37;;;;;;;4.85;1.60;;;;;;;11.60;32.58;102068.34;1646922;86;22170;-61
2021/03/29 12:34:12;;;;;;;2.20;1.55;;;;;;;11.52;32.66;102063.59;1667706;86;21328;-63
2021/03/29 12:36:48;;;;;;;5.17;3.40;;;;;;;11.53;32.73;102056.10;1667999;86;21327;-60